Ocean Highway — H3IE — position and weather

sailwx.info

Track history (hours):
 
Tides and Currents Weather Stations Pressure Air Temp Water Temp Dewpoint Dewpoint Depression Visibility Wind Speed Wind Dir Waves Ship Positions

Ocean Highway

Last reported at 2017-Nov-02 22:09 UTC. Time now 2017-Nov-20 13:56 UTC.
Position N 01°14' E 104°03'.
Warning: this ship's position is 17 days out of date.

Length 179.1 m; beam 32.2 m.

Type: Cargo ship. MMSI: 353951000.

Date/timePositionNaut miles runAvg speedWind from/ knotsBaromVisibWave heightAir tempDewpointWater temp
2017-Nov-02 22:09N 01°14' E 104°03'316.0
2017-Nov-02 21:59N 01°14' E 104°00'715.1
2017-Nov-02 21:30N 01°12' E 103°53'510.2
2017-Nov-02 21:00N 01°12' E 103°48'5 9.7
2017-Nov-02 20:31N 01°16' E 103°45'1 1.5
2017-Nov-02 19:58N 01°17' E 103°45'0 0.0
2017-Nov-02 19:25N 01°17' E 103°45'0 0.0
2017-Nov-02 18:58N 01°17' E 103°45'0 0.1
2017-Nov-02 18:30N 01°17' E 103°45'0 0.1
2017-Nov-02 18:00N 01°17' E 103°45'0 0.0
2017-Nov-02 17:30N 01°17' E 103°45'0 0.0
2017-Nov-02 17:00N 01°17' E 103°45'0 0.0
2017-Nov-02 16:30N 01°17' E 103°45'0 0.0
2017-Nov-02 15:59N 01°17' E 103°45'0 0.0
2017-Nov-02 15:30N 01°17' E 103°45'0 0.0
2017-Nov-02 15:01N 01°17' E 103°45'0 0.0
2017-Nov-02 14:30N 01°17' E 103°45'0 0.0
2017-Nov-02 14:00N 01°17' E 103°45'0 0.0
2017-Nov-02 13:30N 01°17' E 103°45'0 0.0
2017-Nov-02 13:01N 01°17' E 103°45'0 0.0
2017-Nov-02 12:30N 01°17' E 103°45'0 0.0
2017-Nov-02 12:00N 01°17' E 103°45'0 0.0
2017-Nov-02 11:30N 01°17' E 103°45'0 0.0
2017-Nov-02 11:01N 01°17' E 103°45'0 0.4
2017-Nov-02 10:30N 01°17' E 103°45'3 6.7
2017-Nov-02 10:00N 01°14' E 103°47'5 9.6
2017-Nov-02 09:30N 01°13' E 103°52'4 7.3
2017-Nov-02 09:00N 01°14' E 103°55'5 9.6
2017-Nov-02 08:30N 01°16' E 103°60'  
2017-Oct-29 06:40N 01°15' E 104°03'214.6
2017-Oct-29 06:30N 01°14' E 104°01'714.5
2017-Oct-29 06:00N 01°12' E 103°54'610.9
2017-Oct-29 05:30N 01°12' E 103°49'3 6.6
2017-Oct-29 05:01N 01°15' E 103°46'3 5.6
2017-Oct-29 04:30N 01°17' E 103°45'0 0.3
2017-Oct-29 03:58N 01°17' E 103°45'0 0.0
2017-Oct-28 18:58N 01°17' E 103°45'1 1.1
2017-Oct-28 18:30N 01°17' E 103°45'4 7.9
2017-Oct-28 18:00N 01°14' E 103°47'5 9.1
2017-Oct-28 17:30N 01°13' E 103°52'2 4.2
2017-Oct-28 16:59N 01°15' E 103°53'0 0.0
2017-Oct-28 16:22N 01°15' E 103°53'0 0.1
2017-Oct-28 15:50N 01°15' E 103°53'0 0.2
2017-Oct-28 15:25N 01°15' E 103°53'0 0.0
2017-Oct-28 14:58N 01°15' E 103°53'0 0.1
2017-Oct-28 14:30N 01°15' E 103°53'2 3.2
2017-Oct-28 14:00N 01°14' E 103°54'2 3.2
2017-Oct-28 13:30N 01°14' E 103°55'5 9.6
2017-Oct-28 13:00N 01°16' E 104°00'610.6
2017-Oct-28 12:28N 01°16' E 104°06'  
Track history (hours):
 
Tides and Currents Weather Stations Pressure Air Temp Water Temp Dewpoint Dewpoint Depression Visibility Wind Speed Wind Dir Waves Ship Positions

Ocean Highway

Last reported at 2017-Nov-02 22:09 UTC. Time now 2017-Nov-20 13:56 UTC.
Position N 01°14' E 104°03'.
Warning: this ship's position is 17 days out of date.

Length 179.1 m; beam 32.2 m.

Type: Cargo ship. MMSI: 353951000.

Date/timePositionNaut miles runAvg speedWind from/ knotsBaromVisibWave heightAir tempDewpointWater temp
2017-Nov-02 22:09N 01°14' E 104°03'316.0
2017-Nov-02 21:59N 01°14' E 104°00'715.1
2017-Nov-02 21:30N 01°12' E 103°53'510.2
2017-Nov-02 21:00N 01°12' E 103°48'5 9.7
2017-Nov-02 20:31N 01°16' E 103°45'1 1.5
2017-Nov-02 19:58N 01°17' E 103°45'0 0.0
2017-Nov-02 19:25N 01°17' E 103°45'0 0.0
2017-Nov-02 18:58N 01°17' E 103°45'0 0.1
2017-Nov-02 18:30N 01°17' E 103°45'0 0.1
2017-Nov-02 18:00N 01°17' E 103°45'0 0.0
2017-Nov-02 17:30N 01°17' E 103°45'0 0.0
2017-Nov-02 17:00N 01°17' E 103°45'0 0.0
2017-Nov-02 16:30N 01°17' E 103°45'0 0.0
2017-Nov-02 15:59N 01°17' E 103°45'0 0.0
2017-Nov-02 15:30N 01°17' E 103°45'0 0.0
2017-Nov-02 15:01N 01°17' E 103°45'0 0.0
2017-Nov-02 14:30N 01°17' E 103°45'0 0.0
2017-Nov-02 14:00N 01°17' E 103°45'0 0.0
2017-Nov-02 13:30N 01°17' E 103°45'0 0.0
2017-Nov-02 13:01N 01°17' E 103°45'0 0.0
2017-Nov-02 12:30N 01°17' E 103°45'0 0.0
2017-Nov-02 12:00N 01°17' E 103°45'0 0.0
2017-Nov-02 11:30N 01°17' E 103°45'0 0.0
2017-Nov-02 11:01N 01°17' E 103°45'0 0.4
2017-Nov-02 10:30N 01°17' E 103°45'3 6.7
2017-Nov-02 10:00N 01°14' E 103°47'5 9.6
2017-Nov-02 09:30N 01°13' E 103°52'4 7.3
2017-Nov-02 09:00N 01°14' E 103°55'5 9.6
2017-Nov-02 08:30N 01°16' E 103°60'  
2017-Oct-29 06:40N 01°15' E 104°03'214.6
2017-Oct-29 06:30N 01°14' E 104°01'714.5
2017-Oct-29 06:00N 01°12' E 103°54'610.9
2017-Oct-29 05:30N 01°12' E 103°49'3 6.6
2017-Oct-29 05:01N 01°15' E 103°46'3 5.6
2017-Oct-29 04:30N 01°17' E 103°45'0 0.3
2017-Oct-29 03:58N 01°17' E 103°45'0 0.0
2017-Oct-28 18:58N 01°17' E 103°45'1 1.1
2017-Oct-28 18:30N 01°17' E 103°45'4 7.9
2017-Oct-28 18:00N 01°14' E 103°47'5 9.1
2017-Oct-28 17:30N 01°13' E 103°52'2 4.2
2017-Oct-28 16:59N 01°15' E 103°53'0 0.0
2017-Oct-28 16:22N 01°15' E 103°53'0 0.1
2017-Oct-28 15:50N 01°15' E 103°53'0 0.2
2017-Oct-28 15:25N 01°15' E 103°53'0 0.0
2017-Oct-28 14:58N 01°15' E 103°53'0 0.1
2017-Oct-28 14:30N 01°15' E 103°53'2 3.2
2017-Oct-28 14:00N 01°14' E 103°54'2 3.2
2017-Oct-28 13:30N 01°14' E 103°55'5 9.6
2017-Oct-28 13:00N 01°16' E 104°00'610.6
2017-Oct-28 12:28N 01°16' E 104°06'  

Dump ship's entire track history